sensor_id;sensor_type;location;lat;lon;timestamp;pressure;altitude;pressure_sealevel;temperature;humidity
73952;BME280;62304;47.662;18.324;2022-07-22T00:01:25;100373.00;;;23.97;51.70
73952;BME280;62304;47.662;18.324;2022-07-22T00:04:36;100380.59;;;24.00;51.59
73952;BME280;62304;47.662;18.324;2022-07-22T00:07:39;100382.84;;;24.05;51.50
73952;BME280;62304;47.662;18.324;2022-07-22T00:10:50;100401.66;;;24.11;51.65
73952;BME280;62304;47.662;18.324;2022-07-22T00:13:53;100374.28;;;23.96;52.00
73952;BME280;62304;47.662;18.324;2022-07-22T00:16:57;100362.63;;;23.81;52.29
73952;BME280;62304;47.662;18.324;2022-07-22T00:20:00;100394.38;;;23.89;52.31
73952;BME280;62304;47.662;18.324;2022-07-22T00:23:09;100375.94;;;23.72;51.84
73952;BME280;62304;47.662;18.324;2022-07-22T00:26:15;100390.78;;;23.76;51.80
73952;BME280;62304;47.662;18.324;2022-07-22T00:29:21;100396.87;;;23.74;51.89
73952;BME280;62304;47.662;18.324;2022-07-22T00:32:24;100379.47;;;23.63;52.04
73952;BME280;62304;47.662;18.324;2022-07-22T00:35:30;100388.66;;;23.67;51.72
73952;BME280;62304;47.662;18.324;2022-07-22T00:38:38;100401.75;;;23.74;51.99
73952;BME280;62304;47.662;18.324;2022-07-22T00:41:41;100405.50;;;23.71;51.67
73952;BME280;62304;47.662;18.324;2022-07-22T00:44:44;100407.34;;;23.65;51.77
73952;BME280;62304;47.662;18.324;2022-07-22T00:47:53;100386.97;;;23.57;51.36
73952;BME280;62304;47.662;18.324;2022-07-22T00:50:56;100400.44;;;23.66;51.09
73952;BME280;62304;47.662;18.324;2022-07-22T00:54:01;100370.91;;;23.42;50.83
73952;BME280;62304;47.662;18.324;2022-07-22T00:57:06;100373.09;;;23.38;50.99
73952;BME280;62304;47.662;18.324;2022-07-22T01:00:16;100379.09;;;23.40;50.88
73952;BME280;62304;47.662;18.324;2022-07-22T01:03:19;100390.97;;;23.47;50.81
73952;BME280;62304;47.662;18.324;2022-07-22T01:06:25;100374.81;;;23.35;50.73
73952;BME280;62304;47.662;18.324;2022-07-22T01:09:31;100383.06;;;23.30;51.05
73952;BME280;62304;47.662;18.324;2022-07-22T01:12:37;100394.62;;;23.35;51.14
73952;BME280;62304;47.662;18.324;2022-07-22T01:15:40;100374.81;;;23.23;51.28
73952;BME280;62304;47.662;18.324;2022-07-22T01:18:45;100390.09;;;23.38;51.11
73952;BME280;62304;47.662;18.324;2022-07-22T01:21:48;100389.66;;;23.27;51.07
73952;BME280;62304;47.662;18.324;2022-07-22T01:24:54;100376.03;;;23.09;51.25
73952;BME280;62304;47.662;18.324;2022-07-22T01:27:57;100372.31;;;23.00;51.61
73952;BME280;62304;47.662;18.324;2022-07-22T01:31:00;100381.72;;;22.97;51.95
73952;BME280;62304;47.662;18.324;2022-07-22T01:34:04;100376.84;;;22.97;52.01
73952;BME280;62304;47.662;18.324;2022-07-22T01:37:20;100399.81;;;23.12;52.14
73952;BME280;62304;47.662;18.324;2022-07-22T01:40:23;100375.16;;;23.00;52.38
73952;BME280;62304;47.662;18.324;2022-07-22T01:43:27;100379.56;;;23.01;51.99
73952;BME280;62304;47.662;18.324;2022-07-22T01:46:30;100370.88;;;22.95;52.30
73952;BME280;62304;47.662;18.324;2022-07-22T01:49:34;100382.19;;;22.95;52.23
73952;BME280;62304;47.662;18.324;2022-07-22T01:52:38;100377.88;;;22.91;52.04
73952;BME280;62304;47.662;18.324;2022-07-22T01:55:42;100387.72;;;22.86;52.17
73952;BME280;62304;47.662;18.324;2022-07-22T01:58:49;100408.53;;;22.92;52.14
73952;BME280;62304;47.662;18.324;2022-07-22T02:01:55;100413.87;;;22.90;52.19
73952;BME280;62304;47.662;18.324;2022-07-22T02:04:59;100402.31;;;22.85;52.27
73952;BME280;62304;47.662;18.324;2022-07-22T02:08:08;100391.22;;;22.78;52.14
73952;BME280;62304;47.662;18.324;2022-07-22T02:11:12;100415.88;;;22.90;52.21
73952;BME280;62304;47.662;18.324;2022-07-22T02:14:16;100416.13;;;22.83;52.36
73952;BME280;62304;47.662;18.324;2022-07-22T02:17:24;100396.19;;;22.74;52.40
73952;BME280;62304;47.662;18.324;2022-07-22T02:20:35;100409.09;;;22.75;52.83
73952;BME280;62304;47.662;18.324;2022-07-22T02:23:49;100405.81;;;22.76;52.92
73952;BME280;62304;47.662;18.324;2022-07-22T02:26:53;100389.84;;;22.70;53.07
73952;BME280;62304;47.662;18.324;2022-07-22T02:29:57;100382.84;;;22.62;53.58
73952;BME280;62304;47.662;18.324;2022-07-22T02:33:01;100387.13;;;22.54;53.98
73952;BME280;62304;47.662;18.324;2022-07-22T02:36:07;100410.09;;;22.56;54.37
73952;BME280;62304;47.662;18.324;2022-07-22T02:39:14;100389.81;;;22.45;54.40
73952;BME280;62304;47.662;18.324;2022-07-22T02:42:17;100399.66;;;22.53;54.29
73952;BME280;62304;47.662;18.324;2022-07-22T02:45:21;100397.63;;;22.53;54.58
73952;BME280;62304;47.662;18.324;2022-07-22T02:48:28;100403.28;;;22.53;54.69
73952;BME280;62304;47.662;18.324;2022-07-22T02:51:33;100411.13;;;22.62;54.97
73952;BME280;62304;47.662;18.324;2022-07-22T02:54:43;100409.41;;;22.64;55.16
73952;BME280;62304;47.662;18.324;2022-07-22T02:57:49;100406.34;;;22.59;55.56
73952;BME280;62304;47.662;18.324;2022-07-22T03:00:52;100398.62;;;22.47;56.10
73952;BME280;62304;47.662;18.324;2022-07-22T03:03:55;100388.91;;;22.48;56.37
73952;BME280;62304;47.662;18.324;2022-07-22T03:06:59;100389.37;;;22.46;56.53
73952;BME280;62304;47.662;18.324;2022-07-22T03:10:04;100384.38;;;22.38;56.42
73952;BME280;62304;47.662;18.324;2022-07-22T03:13:10;100407.47;;;22.49;56.66
73952;BME280;62304;47.662;18.324;2022-07-22T03:16:16;100383.00;;;22.42;56.59
73952;BME280;62304;47.662;18.324;2022-07-22T03:19:21;100382.94;;;22.46;56.85
73952;BME280;62304;47.662;18.324;2022-07-22T03:22:24;100388.56;;;22.46;57.01
73952;BME280;62304;47.662;18.324;2022-07-22T03:25:31;100393.09;;;22.43;57.56
73952;BME280;62304;47.662;18.324;2022-07-22T03:28:37;100415.16;;;22.48;57.89
73952;BME280;62304;47.662;18.324;2022-07-22T03:31:47;100405.78;;;22.51;57.37
73952;BME280;62304;47.662;18.324;2022-07-22T03:34:58;100406.78;;;22.45;57.72
73952;BME280;62304;47.662;18.324;2022-07-22T03:42:15;100425.69;;;22.60;57.79
73952;BME280;62304;47.662;18.324;2022-07-22T03:45:21;100429.19;;;22.52;58.09
73952;BME280;62304;47.662;18.324;2022-07-22T03:48:27;100408.16;;;22.53;57.50
73952;BME280;62304;47.662;18.324;2022-07-22T03:51:38;100410.47;;;22.42;58.15
73952;BME280;62304;47.662;18.324;2022-07-22T04:10:01;100437.37;;;22.75;58.59
73952;BME280;62304;47.662;18.324;2022-07-22T04:13:16;100424.47;;;22.74;58.41
73952;BME280;62304;47.662;18.324;2022-07-22T04:16:19;100414.41;;;22.85;58.20
73952;BME280;62304;47.662;18.324;2022-07-22T04:19:25;100428.22;;;22.96;58.15
73952;BME280;62304;47.662;18.324;2022-07-22T04:22:28;100422.00;;;23.01;58.28
73952;BME280;62304;47.662;18.324;2022-07-22T04:25:42;100421.09;;;23.04;58.13
73952;BME280;62304;47.662;18.324;2022-07-22T04:28:45;100421.44;;;23.06;58.55
73952;BME280;62304;47.662;18.324;2022-07-22T04:35:33;100438.09;;;23.29;58.16
73952;BME280;62304;47.662;18.324;2022-07-22T04:38:38;100449.19;;;23.36;58.39
73952;BME280;62304;47.662;18.324;2022-07-22T04:41:43;100434.69;;;23.34;58.36
73952;BME280;62304;47.662;18.324;2022-07-22T04:44:48;100430.84;;;23.40;58.36
73952;BME280;62304;47.662;18.324;2022-07-22T04:47:54;100431.03;;;23.46;58.33
73952;BME280;62304;47.662;18.324;2022-07-22T04:50:59;100425.12;;;23.53;58.02
73952;BME280;62304;47.662;18.324;2022-07-22T04:54:03;100433.16;;;23.67;58.00
73952;BME280;62304;47.662;18.324;2022-07-22T04:57:12;100422.84;;;23.73;57.86
73952;BME280;62304;47.662;18.324;2022-07-22T05:00:19;100443.78;;;23.88;58.08
73952;BME280;62304;47.662;18.324;2022-07-22T05:03:23;100416.91;;;23.80;57.99
73952;BME280;62304;47.662;18.324;2022-07-22T05:06:27;100419.97;;;23.85;58.10
73952;BME280;62304;47.662;18.324;2022-07-22T05:09:31;100432.00;;;23.89;57.93
73952;BME280;62304;47.662;18.324;2022-07-22T05:12:34;100441.97;;;23.94;58.33
73952;BME280;62304;47.662;18.324;2022-07-22T05:15:40;100430.16;;;23.95;58.28
73952;BME280;62304;47.662;18.324;2022-07-22T05:18:44;100455.50;;;24.11;58.43
73952;BME280;62304;47.662;18.324;2022-07-22T05:21:51;100438.19;;;23.97;58.86
73952;BME280;62304;47.662;18.324;2022-07-22T05:24:54;100439.66;;;24.01;59.21
73952;BME280;62304;47.662;18.324;2022-07-22T05:27:57;100436.47;;;23.99;59.42
73952;BME280;62304;47.662;18.324;2022-07-22T05:31:05;100461.81;;;24.15;59.46
73952;BME280;62304;47.662;18.324;2022-07-22T05:34:14;100442.03;;;24.03;59.38
73952;BME280;62304;47.662;18.324;2022-07-22T05:40:51;100468.28;;;24.16;59.68
73952;BME280;62304;47.662;18.324;2022-07-22T05:43:57;100471.84;;;24.29;59.58
73952;BME280;62304;47.662;18.324;2022-07-22T05:47:00;100478.28;;;24.42;59.13
73952;BME280;62304;47.662;18.324;2022-07-22T05:50:05;100468.81;;;24.57;58.96
73952;BME280;62304;47.662;18.324;2022-07-22T05:53:10;100476.81;;;24.80;58.77
73952;BME280;62304;47.662;18.324;2022-07-22T05:56:13;100466.00;;;24.88;58.23
73952;BME280;62304;47.662;18.324;2022-07-22T05:59:16;100473.03;;;25.05;57.76
73952;BME280;62304;47.662;18.324;2022-07-22T06:02:19;100467.84;;;25.12;57.81
73952;BME280;62304;47.662;18.324;2022-07-22T06:05:24;100459.66;;;25.14;57.19
73952;BME280;62304;47.662;18.324;2022-07-22T06:08:42;100467.56;;;25.19;57.49
73952;BME280;62304;47.662;18.324;2022-07-22T06:11:45;100463.75;;;25.13;57.38
73952;BME280;62304;47.662;18.324;2022-07-22T06:14:48;100466.44;;;25.08;57.88
73952;BME280;62304;47.662;18.324;2022-07-22T06:17:53;100468.66;;;25.13;57.77
73952;BME280;62304;47.662;18.324;2022-07-22T06:20:57;100479.34;;;25.09;58.06
73952;BME280;62304;47.662;18.324;2022-07-22T06:24:06;100478.41;;;25.12;58.06
73952;BME280;62304;47.662;18.324;2022-07-22T06:27:23;100475.62;;;25.21;57.77
73952;BME280;62304;47.662;18.324;2022-07-22T06:30:39;100473.84;;;25.36;57.75
73952;BME280;62304;47.662;18.324;2022-07-22T06:33:42;100486.47;;;25.44;57.25
73952;BME280;62304;47.662;18.324;2022-07-22T06:36:47;100480.22;;;25.58;56.57
73952;BME280;62304;47.662;18.324;2022-07-22T06:39:53;100469.19;;;25.78;55.47
73952;BME280;62304;47.662;18.324;2022-07-22T06:42:56;100459.47;;;25.97;54.49
73952;BME280;62304;47.662;18.324;2022-07-22T06:45:59;100467.09;;;26.18;53.90
73952;BME280;62304;47.662;18.324;2022-07-22T06:49:05;100463.44;;;26.35;52.56
73952;BME280;62304;47.662;18.324;2022-07-22T06:52:15;100471.19;;;26.62;51.15
73952;BME280;62304;47.662;18.324;2022-07-22T06:55:18;100463.56;;;26.86;50.26
73952;BME280;62304;47.662;18.324;2022-07-22T06:58:22;100466.03;;;27.02;49.83
73952;BME280;62304;47.662;18.324;2022-07-22T07:01:25;100456.69;;;27.19;49.34
73952;BME280;62304;47.662;18.324;2022-07-22T07:04:29;100461.19;;;27.35;48.36
73952;BME280;62304;47.662;18.324;2022-07-22T07:07:32;100458.41;;;27.49;47.87
73952;BME280;62304;47.662;18.324;2022-07-22T07:10:39;100450.56;;;27.68;47.49
73952;BME280;62304;47.662;18.324;2022-07-22T07:13:43;100453.41;;;27.68;47.39
73952;BME280;62304;47.662;18.324;2022-07-22T07:16:46;100453.63;;;27.55;47.08
73952;BME280;62304;47.662;18.324;2022-07-22T07:19:49;100456.44;;;27.64;47.67
73952;BME280;62304;47.662;18.324;2022-07-22T07:22:53;100445.25;;;27.84;46.14
73952;BME280;62304;47.662;18.324;2022-07-22T07:25:57;100444.84;;;28.15;45.88
73952;BME280;62304;47.662;18.324;2022-07-22T07:29:00;100448.53;;;28.30;45.17
73952;BME280;62304;47.662;18.324;2022-07-22T07:32:05;100449.69;;;28.47;45.13
73952;BME280;62304;47.662;18.324;2022-07-22T07:35:09;100443.22;;;28.61;43.92
73952;BME280;62304;47.662;18.324;2022-07-22T07:38:12;100449.59;;;28.85;43.92
73952;BME280;62304;47.662;18.324;2022-07-22T08:01:52;100434.19;;;29.95;42.09
73952;BME280;62304;47.662;18.324;2022-07-22T08:05:02;100434.00;;;30.18;41.74
73952;BME280;62304;47.662;18.324;2022-07-22T08:08:07;100436.50;;;30.31;42.18
73952;BME280;62304;47.662;18.324;2022-07-22T08:11:17;100433.47;;;30.40;41.57
73952;BME280;62304;47.662;18.324;2022-07-22T08:14:22;100424.03;;;30.59;41.31
73952;BME280;62304;47.662;18.324;2022-07-22T08:17:27;100432.84;;;30.76;41.29
73952;BME280;62304;47.662;18.324;2022-07-22T08:20:30;100427.47;;;30.89;40.26
73952;BME280;62304;47.662;18.324;2022-07-22T08:23:35;100432.56;;;31.05;40.15
73952;BME280;62304;47.662;18.324;2022-07-22T08:26:41;100422.56;;;31.20;39.98
73952;BME280;62304;47.662;18.324;2022-07-22T08:29:44;100416.94;;;31.37;39.54
73952;BME280;62304;47.662;18.324;2022-07-22T08:32:47;100419.63;;;31.46;38.99
73952;BME280;62304;47.662;18.324;2022-07-22T08:35:51;100423.09;;;31.61;39.04
73952;BME280;62304;47.662;18.324;2022-07-22T08:38:54;100419.84;;;31.79;38.51
73952;BME280;62304;47.662;18.324;2022-07-22T08:41:58;100423.78;;;31.87;37.57
73952;BME280;62304;47.662;18.324;2022-07-22T08:45:01;100424.09;;;32.00;37.36
73952;BME280;62304;47.662;18.324;2022-07-22T08:48:08;100412.44;;;32.20;37.56
73952;BME280;62304;47.662;18.324;2022-07-22T08:51:11;100418.25;;;32.31;37.17
73952;BME280;62304;47.662;18.324;2022-07-22T08:54:15;100414.62;;;32.47;36.94
73952;BME280;62304;47.662;18.324;2022-07-22T08:57:18;100418.53;;;32.55;36.09
73952;BME280;62304;47.662;18.324;2022-07-22T09:00:22;100421.44;;;32.66;35.86
73952;BME280;62304;47.662;18.324;2022-07-22T09:03:25;100416.47;;;32.72;35.07
73952;BME280;62304;47.662;18.324;2022-07-22T09:06:31;100425.44;;;32.96;35.97
73952;BME280;62304;47.662;18.324;2022-07-22T09:09:36;100424.88;;;33.14;35.24
73952;BME280;62304;47.662;18.324;2022-07-22T09:12:58;100417.31;;;33.22;34.42
73952;BME280;62304;47.662;18.324;2022-07-22T09:16:04;100419.13;;;33.47;33.80
73952;BME280;62304;47.662;18.324;2022-07-22T09:19:11;100416.19;;;33.69;33.37
73952;BME280;62304;47.662;18.324;2022-07-22T09:47:28;100400.22;;;34.82;31.66
73952;BME280;62304;47.662;18.324;2022-07-22T09:50:40;100397.06;;;35.15;30.21
73952;BME280;62304;47.662;18.324;2022-07-22T09:53:44;100396.37;;;35.33;29.82
73952;BME280;62304;47.662;18.324;2022-07-22T09:56:49;100396.31;;;35.38;30.12
73952;BME280;62304;47.662;18.324;2022-07-22T09:59:52;100388.31;;;35.50;29.77
73952;BME280;62304;47.662;18.324;2022-07-22T10:02:59;100384.28;;;35.82;29.62
73952;BME280;62304;47.662;18.324;2022-07-22T10:06:05;100391.12;;;36.03;29.31
73952;BME280;62304;47.662;18.324;2022-07-22T10:09:11;100387.69;;;36.05;29.07
73952;BME280;62304;47.662;18.324;2022-07-22T10:12:17;100374.91;;;36.19;28.22
73952;BME280;62304;47.662;18.324;2022-07-22T10:15:25;100377.03;;;36.37;28.41
73952;BME280;62304;47.662;18.324;2022-07-22T10:18:37;100373.78;;;36.59;28.10
73952;BME280;62304;47.662;18.324;2022-07-22T10:21:40;100382.06;;;36.68;27.42
73952;BME280;62304;47.662;18.324;2022-07-22T10:24:59;100373.28;;;36.92;27.36
73952;BME280;62304;47.662;18.324;2022-07-22T10:28:05;100368.06;;;37.03;27.07
73952;BME280;62304;47.662;18.324;2022-07-22T10:31:23;100369.56;;;37.23;27.16
73952;BME280;62304;47.662;18.324;2022-07-22T10:34:27;100362.34;;;37.29;26.34
73952;BME280;62304;47.662;18.324;2022-07-22T10:44:00;100364.38;;;37.86;26.08
73952;BME280;62304;47.662;18.324;2022-07-22T10:47:05;100338.56;;;37.88;25.31
73952;BME280;62304;47.662;18.324;2022-07-22T10:56:51;100355.22;;;38.88;24.88
73952;BME280;62304;47.662;18.324;2022-07-22T10:59:54;100329.75;;;39.22;24.74
73952;BME280;62304;47.662;18.324;2022-07-22T11:03:00;100342.09;;;39.36;24.67
73952;BME280;62304;47.662;18.324;2022-07-22T11:09:46;100338.22;;;39.69;22.31
73952;BME280;62304;47.662;18.324;2022-07-22T11:12:49;100331.97;;;39.93;22.58
73952;BME280;62304;47.662;18.324;2022-07-22T11:15:54;100323.94;;;40.14;22.52
73952;BME280;62304;47.662;18.324;2022-07-22T11:19:02;100319.78;;;40.45;22.30
73952;BME280;62304;47.662;18.324;2022-07-22T11:22:11;100321.59;;;40.78;21.62
73952;BME280;62304;47.662;18.324;2022-07-22T11:25:18;100309.00;;;40.90;21.56
73952;BME280;62304;47.662;18.324;2022-07-22T11:28:28;100300.44;;;41.37;21.33
73952;BME280;62304;47.662;18.324;2022-07-22T11:31:31;100321.97;;;41.49;20.50
73952;BME280;62304;47.662;18.324;2022-07-22T11:34:40;100289.75;;;41.55;20.19
73952;BME280;62304;47.662;18.324;2022-07-22T11:37:56;100307.63;;;42.06;19.39
73952;BME280;62304;47.662;18.324;2022-07-22T11:44:48;100303.91;;;42.45;18.41
73952;BME280;62304;47.662;18.324;2022-07-22T11:47:54;100296.50;;;42.52;18.88
73952;BME280;62304;47.662;18.324;2022-07-22T11:51:05;100296.34;;;42.74;18.58
73952;BME280;62304;47.662;18.324;2022-07-22T11:54:11;100294.09;;;42.65;18.05
73952;BME280;62304;47.662;18.324;2022-07-22T11:57:14;100291.03;;;43.05;18.06
73952;BME280;62304;47.662;18.324;2022-07-22T12:00:18;100279.31;;;43.29;17.89
73952;BME280;62304;47.662;18.324;2022-07-22T12:03:23;100275.69;;;43.21;17.63
73952;BME280;62304;47.662;18.324;2022-07-22T12:06:27;100275.97;;;43.33;17.34
73952;BME280;62304;47.662;18.324;2022-07-22T12:09:34;100271.84;;;43.87;17.09
73952;BME280;62304;47.662;18.324;2022-07-22T12:12:40;100274.94;;;44.06;16.31
73952;BME280;62304;47.662;18.324;2022-07-22T12:15:44;100270.66;;;44.33;16.28
73952;BME280;62304;47.662;18.324;2022-07-22T12:18:54;100260.47;;;44.34;16.08
73952;BME280;62304;47.662;18.324;2022-07-22T12:22:04;100255.09;;;44.57;15.57
73952;BME280;62304;47.662;18.324;2022-07-22T12:25:07;100255.94;;;44.77;15.53
73952;BME280;62304;47.662;18.324;2022-07-22T12:28:11;100253.72;;;45.13;15.10
73952;BME280;62304;47.662;18.324;2022-07-22T12:31:13;100249.16;;;45.29;14.55
73952;BME280;62304;47.662;18.324;2022-07-22T12:34:28;100251.16;;;45.55;14.23
73952;BME280;62304;47.662;18.324;2022-07-22T12:37:42;100236.78;;;46.16;13.73
73952;BME280;62304;47.662;18.324;2022-07-22T12:40:45;100233.66;;;46.24;13.79
73952;BME280;62304;47.662;18.324;2022-07-22T12:43:49;100228.13;;;46.18;13.64
73952;BME280;62304;47.662;18.324;2022-07-22T12:46:56;100226.50;;;46.76;13.49
73952;BME280;62304;47.662;18.324;2022-07-22T12:50:18;100217.91;;;46.59;13.33
73952;BME280;62304;47.662;18.324;2022-07-22T12:53:21;100219.59;;;47.44;12.79
73952;BME280;62304;47.662;18.324;2022-07-22T12:56:27;100214.00;;;47.06;12.74
73952;BME280;62304;47.662;18.324;2022-07-22T12:59:36;100215.81;;;47.11;12.50
73952;BME280;62304;47.662;18.324;2022-07-22T13:02:39;100209.06;;;47.62;12.22
73952;BME280;62304;47.662;18.324;2022-07-22T13:05:43;100199.81;;;47.56;12.08
73952;BME280;62304;47.662;18.324;2022-07-22T13:08:46;100208.41;;;47.10;12.40
73952;BME280;62304;47.662;18.324;2022-07-22T13:11:51;100201.25;;;47.13;12.47
73952;BME280;62304;47.662;18.324;2022-07-22T13:14:54;100192.41;;;47.88;12.06
73952;BME280;62304;47.662;18.324;2022-07-22T13:17:57;100189.94;;;48.28;11.48
73952;BME280;62304;47.662;18.324;2022-07-22T13:20:59;100193.03;;;48.88;11.21
73952;BME280;62304;47.662;18.324;2022-07-22T13:24:03;100182.50;;;48.96;11.10
73952;BME280;62304;47.662;18.324;2022-07-22T13:27:06;100178.72;;;49.30;10.63
73952;BME280;62304;47.662;18.324;2022-07-22T13:30:09;100180.69;;;49.76;10.39
73952;BME280;62304;47.662;18.324;2022-07-22T13:33:12;100183.13;;;49.18;10.70
73952;BME280;62304;47.662;18.324;2022-07-22T13:36:15;100177.28;;;48.95;10.94
73952;BME280;62304;47.662;18.324;2022-07-22T13:39:18;100172.75;;;49.17;10.73
73952;BME280;62304;47.662;18.324;2022-07-22T13:50:43;100169.88;;;47.81;11.24
73952;BME280;62304;47.662;18.324;2022-07-22T13:53:46;100169.03;;;49.16;10.49
73952;BME280;62304;47.662;18.324;2022-07-22T13:56:49;100163.13;;;49.16;10.21
73952;BME280;62304;47.662;18.324;2022-07-22T13:59:52;100155.25;;;49.32;10.37
73952;BME280;62304;47.662;18.324;2022-07-22T14:02:55;100160.66;;;49.24;10.53
73952;BME280;62304;47.662;18.324;2022-07-22T14:05:58;100153.81;;;48.85;10.71
73952;BME280;62304;47.662;18.324;2022-07-22T14:09:01;100153.72;;;48.26;11.03
73952;BME280;62304;47.662;18.324;2022-07-22T14:12:05;100149.50;;;48.40;11.03
73952;BME280;62304;47.662;18.324;2022-07-22T14:15:09;100126.44;;;47.47;11.55
73952;BME280;62304;47.662;18.324;2022-07-22T14:18:12;100150.53;;;46.71;12.48
73952;BME280;62304;47.662;18.324;2022-07-22T14:21:15;100149.47;;;46.87;12.18
73952;BME280;62304;47.662;18.324;2022-07-22T14:24:18;100146.66;;;46.68;12.22
73952;BME280;62304;47.662;18.324;2022-07-22T14:27:21;100134.28;;;46.70;12.17
73952;BME280;62304;47.662;18.324;2022-07-22T14:30:24;100134.09;;;46.77;12.49
73952;BME280;62304;47.662;18.324;2022-07-22T14:33:29;100133.69;;;46.71;12.63
73952;BME280;62304;47.662;18.324;2022-07-22T14:36:32;100128.69;;;46.13;12.76
73952;BME280;62304;47.662;18.324;2022-07-22T14:39:35;100127.91;;;45.72;12.89
73952;BME280;62304;47.662;18.324;2022-07-22T14:42:39;100128.34;;;45.69;13.06
73952;BME280;62304;47.662;18.324;2022-07-22T14:45:42;100127.31;;;45.26;13.34
73952;BME280;62304;47.662;18.324;2022-07-22T14:48:45;100117.59;;;45.14;13.60
73952;BME280;62304;47.662;18.324;2022-07-22T14:51:48;100123.16;;;44.91;14.01
73952;BME280;62304;47.662;18.324;2022-07-22T14:54:52;100123.41;;;44.76;13.98
73952;BME280;62304;47.662;18.324;2022-07-22T14:57:54;100124.53;;;44.35;14.20
73952;BME280;62304;47.662;18.324;2022-07-22T15:00:57;100116.66;;;44.28;14.12
73952;BME280;62304;47.662;18.324;2022-07-22T15:04:00;100109.56;;;44.22;13.85
73952;BME280;62304;47.662;18.324;2022-07-22T15:07:05;100106.72;;;43.78;14.30
73952;BME280;62304;47.662;18.324;2022-07-22T15:10:08;100101.75;;;43.71;14.55
73952;BME280;62304;47.662;18.324;2022-07-22T15:13:13;100102.59;;;43.55;14.59
73952;BME280;62304;47.662;18.324;2022-07-22T15:16:16;100101.31;;;43.48;14.72
73952;BME280;62304;47.662;18.324;2022-07-22T15:19:19;100103.47;;;43.31;15.04
73952;BME280;62304;47.662;18.324;2022-07-22T15:22:28;100105.66;;;43.13;15.10
73952;BME280;62304;47.662;18.324;2022-07-22T15:25:31;100103.25;;;43.02;15.22
73952;BME280;62304;47.662;18.324;2022-07-22T15:28:34;100098.50;;;42.90;15.45
73952;BME280;62304;47.662;18.324;2022-07-22T15:31:37;100095.00;;;42.91;15.36
73952;BME280;62304;47.662;18.324;2022-07-22T15:34:40;100085.63;;;42.59;15.78
73952;BME280;62304;47.662;18.324;2022-07-22T15:37:44;100087.38;;;42.13;16.58
73952;BME280;62304;47.662;18.324;2022-07-22T15:40:46;100088.34;;;41.91;16.49
73952;BME280;62304;47.662;18.324;2022-07-22T15:43:50;100088.50;;;41.92;16.52
73952;BME280;62304;47.662;18.324;2022-07-22T15:46:53;100085.66;;;41.85;16.71
73952;BME280;62304;47.662;18.324;2022-07-22T15:49:57;100080.91;;;41.65;16.76
73952;BME280;62304;47.662;18.324;2022-07-22T15:53:00;100096.16;;;41.48;16.98
73952;BME280;62304;47.662;18.324;2022-07-22T15:56:03;100084.50;;;41.48;16.93
73952;BME280;62304;47.662;18.324;2022-07-22T15:59:06;100083.50;;;41.06;17.52
73952;BME280;62304;47.662;18.324;2022-07-22T16:02:31;100075.41;;;41.05;17.80
73952;BME280;62304;47.662;18.324;2022-07-22T16:05:34;100072.41;;;40.58;18.52
73952;BME280;62304;47.662;18.324;2022-07-22T16:08:37;100078.81;;;40.56;18.48
73952;BME280;62304;47.662;18.324;2022-07-22T16:11:40;100066.41;;;40.26;18.58
73952;BME280;62304;47.662;18.324;2022-07-22T16:14:43;100070.87;;;40.12;18.61
73952;BME280;62304;47.662;18.324;2022-07-22T16:17:46;100068.16;;;39.91;18.84
73952;BME280;62304;47.662;18.324;2022-07-22T16:20:49;100066.22;;;39.86;19.29
73952;BME280;62304;47.662;18.324;2022-07-22T16:23:52;100073.91;;;39.61;19.45
73952;BME280;62304;47.662;18.324;2022-07-22T16:26:55;100071.94;;;39.41;19.75
73952;BME280;62304;47.662;18.324;2022-07-22T16:30:01;100069.47;;;39.10;20.18
73952;BME280;62304;47.662;18.324;2022-07-22T16:33:04;100074.56;;;38.81;20.88
73952;BME280;62304;47.662;18.324;2022-07-22T16:36:07;100070.34;;;38.54;21.13
73952;BME280;62304;47.662;18.324;2022-07-22T16:39:10;100083.03;;;38.23;20.92
73952;BME280;62304;47.662;18.324;2022-07-22T16:42:14;100079.00;;;37.85;21.26
73952;BME280;62304;47.662;18.324;2022-07-22T16:45:23;100079.47;;;37.56;21.25
73952;BME280;62304;47.662;18.324;2022-07-22T17:04:22;100093.19;;;36.31;24.04
73952;BME280;62304;47.662;18.324;2022-07-22T17:07:29;100061.75;;;35.96;24.36
73952;BME280;62304;47.662;18.324;2022-07-22T17:10:33;100080.81;;;35.86;24.67
73952;BME280;62304;47.662;18.324;2022-07-22T17:13:37;100096.25;;;35.75;25.00
73952;BME280;62304;47.662;18.324;2022-07-22T17:16:50;100086.50;;;35.60;25.60
73952;BME280;62304;47.662;18.324;2022-07-22T17:19:53;100095.88;;;35.29;25.96
73952;BME280;62304;47.662;18.324;2022-07-22T17:22:56;100096.03;;;35.18;26.02
73952;BME280;62304;47.662;18.324;2022-07-22T17:25:59;100100.69;;;35.02;25.99
73952;BME280;62304;47.662;18.324;2022-07-22T17:29:03;100099.75;;;34.94;25.99
73952;BME280;62304;47.662;18.324;2022-07-22T17:32:06;100099.44;;;34.79;26.18
73952;BME280;62304;47.662;18.324;2022-07-22T17:35:09;100098.03;;;34.62;26.42
73952;BME280;62304;47.662;18.324;2022-07-22T17:38:13;100104.47;;;34.49;26.69
73952;BME280;62304;47.662;18.324;2022-07-22T17:41:15;100101.66;;;34.44;26.75
73952;BME280;62304;47.662;18.324;2022-07-22T17:44:20;100104.69;;;34.27;27.02
73952;BME280;62304;47.662;18.324;2022-07-22T17:47:23;100108.19;;;34.15;27.32
73952;BME280;62304;47.662;18.324;2022-07-22T17:50:26;100113.81;;;34.02;27.31
73952;BME280;62304;47.662;18.324;2022-07-22T17:53:29;100107.34;;;33.96;27.22